sensor_id;sensor_type;location;lat;lon;timestamp;P1;durP1;ratioP1;P2;durP2;ratioP2
49548;SDS011;35450;44.518;7.466;2024-02-21T00:00:44;4.40;;;1.40;;
49548;SDS011;35450;44.518;7.466;2024-02-21T00:03:48;3.45;;;1.10;;
49548;SDS011;35450;44.518;7.466;2024-02-21T00:06:52;2.53;;;0.95;;
49548;SDS011;35450;44.518;7.466;2024-02-21T00:09:56;2.00;;;0.90;;
49548;SDS011;35450;44.518;7.466;2024-02-21T00:13:00;1.58;;;0.68;;
49548;SDS011;35450;44.518;7.466;2024-02-21T00:16:04;2.35;;;0.80;;
49548;SDS011;35450;44.518;7.466;2024-02-21T00:19:08;1.67;;;0.88;;
49548;SDS011;35450;44.518;7.466;2024-02-21T00:22:12;2.75;;;0.70;;
49548;SDS011;35450;44.518;7.466;2024-02-21T00:25:16;1.77;;;0.70;;
49548;SDS011;35450;44.518;7.466;2024-02-21T00:28:20;1.38;;;0.80;;
49548;SDS011;35450;44.518;7.466;2024-02-21T00:31:24;1.17;;;0.70;;
49548;SDS011;35450;44.518;7.466;2024-02-21T00:34:28;2.65;;;0.90;;
49548;SDS011;35450;44.518;7.466;2024-02-21T00:37:32;4.45;;;0.93;;
49548;SDS011;35450;44.518;7.466;2024-02-21T00:40:37;3.00;;;1.45;;
49548;SDS011;35450;44.518;7.466;2024-02-21T00:43:41;2.60;;;1.30;;
49548;SDS011;35450;44.518;7.466;2024-02-21T00:46:45;3.00;;;1.00;;
49548;SDS011;35450;44.518;7.466;2024-02-21T00:49:50;2.58;;;1.05;;
49548;SDS011;35450;44.518;7.466;2024-02-21T00:52:54;1.92;;;1.00;;
49548;SDS011;35450;44.518;7.466;2024-02-21T00:55:58;3.90;;;0.95;;
49548;SDS011;35450;44.518;7.466;2024-02-21T00:59:02;1.80;;;0.93;;
49548;SDS011;35450;44.518;7.466;2024-02-21T01:02:06;2.15;;;0.90;;
49548;SDS011;35450;44.518;7.466;2024-02-21T01:05:10;12.07;;;4.28;;
49548;SDS011;35450;44.518;7.466;2024-02-21T01:08:14;15.95;;;5.78;;
49548;SDS011;35450;44.518;7.466;2024-02-21T01:11:18;3.40;;;1.35;;
49548;SDS011;35450;44.518;7.466;2024-02-21T01:14:22;2.35;;;1.02;;
49548;SDS011;35450;44.518;7.466;2024-02-21T01:17:26;3.85;;;1.60;;
49548;SDS011;35450;44.518;7.466;2024-02-21T01:20:30;3.08;;;1.20;;
49548;SDS011;35450;44.518;7.466;2024-02-21T01:23:35;3.45;;;1.52;;
49548;SDS011;35450;44.518;7.466;2024-02-21T01:26:40;3.22;;;1.45;;
49548;SDS011;35450;44.518;7.466;2024-02-21T01:29:45;4.35;;;1.60;;
49548;SDS011;35450;44.518;7.466;2024-02-21T01:32:51;2.50;;;1.13;;
49548;SDS011;35450;44.518;7.466;2024-02-21T01:35:55;3.10;;;1.30;;
49548;SDS011;35450;44.518;7.466;2024-02-21T01:38:59;2.58;;;1.20;;
49548;SDS011;35450;44.518;7.466;2024-02-21T01:42:03;3.95;;;1.75;;
49548;SDS011;35450;44.518;7.466;2024-02-21T01:45:07;5.18;;;1.80;;
49548;SDS011;35450;44.518;7.466;2024-02-21T01:48:11;6.28;;;1.83;;
49548;SDS011;35450;44.518;7.466;2024-02-21T01:51:16;5.30;;;2.08;;
49548;SDS011;35450;44.518;7.466;2024-02-21T01:54:20;4.18;;;1.63;;
49548;SDS011;35450;44.518;7.466;2024-02-21T01:57:25;9.00;;;2.20;;
49548;SDS011;35450;44.518;7.466;2024-02-21T02:00:29;2.08;;;1.40;;
49548;SDS011;35450;44.518;7.466;2024-02-21T02:03:34;3.88;;;1.60;;
49548;SDS011;35450;44.518;7.466;2024-02-21T02:06:38;4.80;;;2.47;;
49548;SDS011;35450;44.518;7.466;2024-02-21T02:09:42;27.20;;;8.32;;
49548;SDS011;35450;44.518;7.466;2024-02-21T02:12:47;7.00;;;3.05;;
49548;SDS011;35450;44.518;7.466;2024-02-21T02:15:51;6.07;;;2.00;;
49548;SDS011;35450;44.518;7.466;2024-02-21T02:18:54;3.35;;;1.70;;
49548;SDS011;35450;44.518;7.466;2024-02-21T02:22:07;3.17;;;1.48;;
49548;SDS011;35450;44.518;7.466;2024-02-21T02:25:15;6.43;;;1.58;;
49548;SDS011;35450;44.518;7.466;2024-02-21T02:28:19;1.90;;;1.02;;
49548;SDS011;35450;44.518;7.466;2024-02-21T02:31:23;3.65;;;1.58;;
49548;SDS011;35450;44.518;7.466;2024-02-21T02:34:27;3.78;;;1.73;;
49548;SDS011;35450;44.518;7.466;2024-02-21T02:37:31;3.20;;;1.30;;
49548;SDS011;35450;44.518;7.466;2024-02-21T02:40:35;3.92;;;1.55;;
49548;SDS011;35450;44.518;7.466;2024-02-21T02:43:39;5.18;;;1.60;;
49548;SDS011;35450;44.518;7.466;2024-02-21T02:46:43;3.97;;;1.63;;
49548;SDS011;35450;44.518;7.466;2024-02-21T02:49:47;4.55;;;2.03;;
49548;SDS011;35450;44.518;7.466;2024-02-21T02:52:54;3.40;;;1.83;;
49548;SDS011;35450;44.518;7.466;2024-02-21T02:55:58;3.42;;;1.65;;
49548;SDS011;35450;44.518;7.466;2024-02-21T02:59:02;5.07;;;2.30;;
49548;SDS011;35450;44.518;7.466;2024-02-21T03:02:06;4.13;;;1.80;;
49548;SDS011;35450;44.518;7.466;2024-02-21T03:05:14;4.22;;;1.80;;
49548;SDS011;35450;44.518;7.466;2024-02-21T03:08:19;5.22;;;1.85;;
49548;SDS011;35450;44.518;7.466;2024-02-21T03:11:23;3.42;;;1.40;;
49548;SDS011;35450;44.518;7.466;2024-02-21T03:14:32;4.97;;;1.85;;
49548;SDS011;35450;44.518;7.466;2024-02-21T03:17:37;3.28;;;1.52;;
49548;SDS011;35450;44.518;7.466;2024-02-21T03:20:42;5.20;;;2.78;;
49548;SDS011;35450;44.518;7.466;2024-02-21T03:23:46;4.05;;;1.48;;
49548;SDS011;35450;44.518;7.466;2024-02-21T03:26:50;3.08;;;1.40;;
49548;SDS011;35450;44.518;7.466;2024-02-21T03:29:54;3.15;;;1.55;;
49548;SDS011;35450;44.518;7.466;2024-02-21T03:32:58;3.35;;;1.33;;
49548;SDS011;35450;44.518;7.466;2024-02-21T03:36:02;2.72;;;1.65;;
49548;SDS011;35450;44.518;7.466;2024-02-21T03:39:06;3.08;;;1.50;;
49548;SDS011;35450;44.518;7.466;2024-02-21T03:42:12;4.15;;;1.88;;
49548;SDS011;35450;44.518;7.466;2024-02-21T03:45:16;4.97;;;1.73;;
49548;SDS011;35450;44.518;7.466;2024-02-21T03:48:20;4.10;;;1.85;;
49548;SDS011;35450;44.518;7.466;2024-02-21T03:51:24;4.20;;;1.48;;
49548;SDS011;35450;44.518;7.466;2024-02-21T03:54:28;4.10;;;1.63;;
49548;SDS011;35450;44.518;7.466;2024-02-21T03:57:32;4.35;;;1.90;;
49548;SDS011;35450;44.518;7.466;2024-02-21T04:00:36;5.40;;;2.15;;
49548;SDS011;35450;44.518;7.466;2024-02-21T04:03:40;3.75;;;1.63;;
49548;SDS011;35450;44.518;7.466;2024-02-21T04:06:45;6.35;;;2.15;;
49548;SDS011;35450;44.518;7.466;2024-02-21T04:09:53;3.72;;;1.83;;
49548;SDS011;35450;44.518;7.466;2024-02-21T04:12:57;6.50;;;2.35;;
49548;SDS011;35450;44.518;7.466;2024-02-21T04:16:01;4.97;;;2.00;;
49548;SDS011;35450;44.518;7.466;2024-02-21T04:19:05;5.68;;;2.42;;
49548;SDS011;35450;44.518;7.466;2024-02-21T04:22:09;5.60;;;2.38;;
49548;SDS011;35450;44.518;7.466;2024-02-21T04:25:14;6.82;;;2.92;;
49548;SDS011;35450;44.518;7.466;2024-02-21T04:28:18;7.43;;;2.95;;
49548;SDS011;35450;44.518;7.466;2024-02-21T04:31:22;5.72;;;2.72;;
49548;SDS011;35450;44.518;7.466;2024-02-21T04:34:26;8.38;;;2.92;;
49548;SDS011;35450;44.518;7.466;2024-02-21T04:37:30;8.77;;;3.45;;
49548;SDS011;35450;44.518;7.466;2024-02-21T04:40:34;9.65;;;3.47;;
49548;SDS011;35450;44.518;7.466;2024-02-21T04:43:38;9.90;;;3.90;;
49548;SDS011;35450;44.518;7.466;2024-02-21T04:46:42;8.88;;;3.03;;
49548;SDS011;35450;44.518;7.466;2024-02-21T04:49:47;6.47;;;3.40;;
49548;SDS011;35450;44.518;7.466;2024-02-21T04:52:51;6.90;;;3.42;;
49548;SDS011;35450;44.518;7.466;2024-02-21T04:55:54;10.30;;;4.10;;
49548;SDS011;35450;44.518;7.466;2024-02-21T04:58:59;13.88;;;3.88;;
49548;SDS011;35450;44.518;7.466;2024-02-21T05:02:03;11.02;;;4.45;;
49548;SDS011;35450;44.518;7.466;2024-02-21T05:05:07;11.68;;;4.32;;
49548;SDS011;35450;44.518;7.466;2024-02-21T05:08:11;12.82;;;5.22;;
49548;SDS011;35450;44.518;7.466;2024-02-21T05:11:15;13.88;;;4.70;;
49548;SDS011;35450;44.518;7.466;2024-02-21T05:14:19;9.40;;;4.95;;
49548;SDS011;35450;44.518;7.466;2024-02-21T05:17:23;13.18;;;5.85;;
49548;SDS011;35450;44.518;7.466;2024-02-21T05:20:27;8.43;;;4.40;;
49548;SDS011;35450;44.518;7.466;2024-02-21T05:23:31;14.48;;;4.45;;
49548;SDS011;35450;44.518;7.466;2024-02-21T05:26:35;9.50;;;4.10;;
49548;SDS011;35450;44.518;7.466;2024-02-21T05:29:39;10.60;;;4.82;;
49548;SDS011;35450;44.518;7.466;2024-02-21T05:32:43;11.13;;;4.47;;
49548;SDS011;35450;44.518;7.466;2024-02-21T05:35:47;7.43;;;3.60;;
49548;SDS011;35450;44.518;7.466;2024-02-21T05:38:51;9.13;;;4.07;;
49548;SDS011;35450;44.518;7.466;2024-02-21T05:41:55;8.15;;;3.30;;
49548;SDS011;35450;44.518;7.466;2024-02-21T05:45:00;7.10;;;3.28;;
49548;SDS011;35450;44.518;7.466;2024-02-21T05:48:04;8.90;;;4.50;;
49548;SDS011;35450;44.518;7.466;2024-02-21T05:51:08;8.98;;;3.80;;
49548;SDS011;35450;44.518;7.466;2024-02-21T05:54:12;12.55;;;4.75;;
49548;SDS011;35450;44.518;7.466;2024-02-21T05:57:17;4.60;;;2.47;;
49548;SDS011;35450;44.518;7.466;2024-02-21T06:00:22;82.45;;;46.03;;
49548;SDS011;35450;44.518;7.466;2024-02-21T06:03:26;40.30;;;22.38;;
49548;SDS011;35450;44.518;7.466;2024-02-21T06:06:32;35.80;;;21.90;;
49548;SDS011;35450;44.518;7.466;2024-02-21T06:09:36;14.65;;;8.43;;
49548;SDS011;35450;44.518;7.466;2024-02-21T06:12:40;12.23;;;6.30;;
49548;SDS011;35450;44.518;7.466;2024-02-21T06:15:44;7.38;;;3.65;;
49548;SDS011;35450;44.518;7.466;2024-02-21T06:18:48;9.38;;;4.22;;
49548;SDS011;35450;44.518;7.466;2024-02-21T06:21:52;8.57;;;3.92;;
49548;SDS011;35450;44.518;7.466;2024-02-21T06:24:56;10.63;;;4.30;;
49548;SDS011;35450;44.518;7.466;2024-02-21T06:28:00;9.38;;;4.55;;
49548;SDS011;35450;44.518;7.466;2024-02-21T06:31:04;8.65;;;3.92;;
49548;SDS011;35450;44.518;7.466;2024-02-21T06:34:08;9.73;;;5.00;;
49548;SDS011;35450;44.518;7.466;2024-02-21T06:37:12;11.25;;;4.75;;
49548;SDS011;35450;44.518;7.466;2024-02-21T06:40:15;12.20;;;6.28;;
49548;SDS011;35450;44.518;7.466;2024-02-21T06:43:20;15.43;;;4.90;;
49548;SDS011;35450;44.518;7.466;2024-02-21T06:46:25;11.68;;;5.15;;
49548;SDS011;35450;44.518;7.466;2024-02-21T06:49:30;11.18;;;5.07;;
49548;SDS011;35450;44.518;7.466;2024-02-21T06:52:34;12.30;;;4.90;;
49548;SDS011;35450;44.518;7.466;2024-02-21T06:55:39;10.98;;;4.88;;
49548;SDS011;35450;44.518;7.466;2024-02-21T06:58:43;13.20;;;5.30;;
49548;SDS011;35450;44.518;7.466;2024-02-21T07:01:48;19.88;;;7.05;;
49548;SDS011;35450;44.518;7.466;2024-02-21T07:04:52;16.77;;;6.40;;
49548;SDS011;35450;44.518;7.466;2024-02-21T07:07:56;33.10;;;9.30;;
49548;SDS011;35450;44.518;7.466;2024-02-21T07:11:00;49.22;;;19.63;;
49548;SDS011;35450;44.518;7.466;2024-02-21T07:14:04;41.72;;;23.77;;
49548;SDS011;35450;44.518;7.466;2024-02-21T07:17:08;31.38;;;15.18;;
49548;SDS011;35450;44.518;7.466;2024-02-21T07:20:12;36.90;;;28.42;;
49548;SDS011;35450;44.518;7.466;2024-02-21T07:23:16;17.52;;;9.10;;
49548;SDS011;35450;44.518;7.466;2024-02-21T07:26:20;19.65;;;8.63;;
49548;SDS011;35450;44.518;7.466;2024-02-21T07:29:25;97.10;;;69.00;;
49548;SDS011;35450;44.518;7.466;2024-02-21T07:32:29;28.60;;;14.05;;
49548;SDS011;35450;44.518;7.466;2024-02-21T07:35:33;27.25;;;15.07;;
49548;SDS011;35450;44.518;7.466;2024-02-21T07:38:37;23.63;;;13.15;;
49548;SDS011;35450;44.518;7.466;2024-02-21T07:41:41;22.30;;;14.20;;
49548;SDS011;35450;44.518;7.466;2024-02-21T07:44:48;20.75;;;8.93;;
49548;SDS011;35450;44.518;7.466;2024-02-21T07:47:52;18.20;;;10.55;;
49548;SDS011;35450;44.518;7.466;2024-02-21T07:50:56;14.25;;;8.65;;
49548;SDS011;35450;44.518;7.466;2024-02-21T07:54:00;15.35;;;7.00;;
49548;SDS011;35450;44.518;7.466;2024-02-21T07:57:04;17.60;;;8.43;;
49548;SDS011;35450;44.518;7.466;2024-02-21T08:00:08;15.02;;;7.60;;
49548;SDS011;35450;44.518;7.466;2024-02-21T08:03:17;28.75;;;7.95;;
49548;SDS011;35450;44.518;7.466;2024-02-21T08:06:22;17.63;;;6.97;;
49548;SDS011;35450;44.518;7.466;2024-02-21T08:09:26;15.40;;;6.70;;
49548;SDS011;35450;44.518;7.466;2024-02-21T08:12:30;16.77;;;5.80;;
49548;SDS011;35450;44.518;7.466;2024-02-21T08:15:35;16.10;;;6.25;;
49548;SDS011;35450;44.518;7.466;2024-02-21T08:18:44;15.13;;;6.40;;
49548;SDS011;35450;44.518;7.466;2024-02-21T08:21:48;15.40;;;6.35;;
49548;SDS011;35450;44.518;7.466;2024-02-21T08:24:52;17.17;;;6.85;;
49548;SDS011;35450;44.518;7.466;2024-02-21T08:27:57;15.35;;;6.53;;
49548;SDS011;35450;44.518;7.466;2024-02-21T08:31:02;19.88;;;7.40;;
49548;SDS011;35450;44.518;7.466;2024-02-21T08:34:09;17.30;;;7.75;;
49548;SDS011;35450;44.518;7.466;2024-02-21T08:37:13;19.27;;;8.73;;
49548;SDS011;35450;44.518;7.466;2024-02-21T08:40:17;13.65;;;7.25;;
49548;SDS011;35450;44.518;7.466;2024-02-21T08:43:24;18.33;;;8.25;;
49548;SDS011;35450;44.518;7.466;2024-02-21T08:46:28;16.05;;;7.78;;
49548;SDS011;35450;44.518;7.466;2024-02-21T08:49:32;14.65;;;6.53;;
49548;SDS011;35450;44.518;7.466;2024-02-21T08:52:36;15.70;;;7.43;;
49548;SDS011;35450;44.518;7.466;2024-02-21T08:55:41;18.63;;;7.20;;
49548;SDS011;35450;44.518;7.466;2024-02-21T08:58:45;14.25;;;7.10;;
49548;SDS011;35450;44.518;7.466;2024-02-21T09:01:50;19.05;;;7.35;;
49548;SDS011;35450;44.518;7.466;2024-02-21T09:04:58;18.55;;;6.82;;
49548;SDS011;35450;44.518;7.466;2024-02-21T09:08:02;13.30;;;6.43;;
49548;SDS011;35450;44.518;7.466;2024-02-21T09:11:08;17.50;;;7.65;;
49548;SDS011;35450;44.518;7.466;2024-02-21T09:14:12;21.83;;;7.38;;
49548;SDS011;35450;44.518;7.466;2024-02-21T09:17:16;14.90;;;7.18;;
49548;SDS011;35450;44.518;7.466;2024-02-21T09:20:21;14.55;;;7.43;;
49548;SDS011;35450;44.518;7.466;2024-02-21T09:23:25;20.00;;;7.93;;
49548;SDS011;35450;44.518;7.466;2024-02-21T09:26:29;14.93;;;7.38;;
49548;SDS011;35450;44.518;7.466;2024-02-21T09:29:33;14.73;;;7.63;;
49548;SDS011;35450;44.518;7.466;2024-02-21T09:32:37;17.25;;;8.07;;
49548;SDS011;35450;44.518;7.466;2024-02-21T09:35:42;17.92;;;8.48;;
49548;SDS011;35450;44.518;7.466;2024-02-21T09:38:46;21.83;;;9.55;;
49548;SDS011;35450;44.518;7.466;2024-02-21T09:41:53;19.13;;;9.85;;
49548;SDS011;35450;44.518;7.466;2024-02-21T09:45:02;14.65;;;8.20;;
49548;SDS011;35450;44.518;7.466;2024-02-21T09:51:39;15.30;;;7.63;;
49548;SDS011;35450;44.518;7.466;2024-02-21T09:54:46;15.27;;;8.48;;
49548;SDS011;35450;44.518;7.466;2024-02-21T09:57:59;15.95;;;9.23;;
49548;SDS011;35450;44.518;7.466;2024-02-21T10:01:08;23.15;;;10.25;;
49548;SDS011;35450;44.518;7.466;2024-02-21T10:04:17;21.75;;;10.88;;
49548;SDS011;35450;44.518;7.466;2024-02-21T10:07:21;28.27;;;12.82;;
49548;SDS011;35450;44.518;7.466;2024-02-21T10:10:27;26.60;;;14.13;;
49548;SDS011;35450;44.518;7.466;2024-02-21T10:13:33;28.58;;;15.30;;
49548;SDS011;35450;44.518;7.466;2024-02-21T10:16:37;30.33;;;16.38;;
49548;SDS011;35450;44.518;7.466;2024-02-21T10:19:41;32.95;;;15.75;;
49548;SDS011;35450;44.518;7.466;2024-02-21T10:22:45;27.17;;;13.98;;
49548;SDS011;35450;44.518;7.466;2024-02-21T10:25:49;17.88;;;9.30;;
49548;SDS011;35450;44.518;7.466;2024-02-21T10:28:55;15.00;;;7.80;;
49548;SDS011;35450;44.518;7.466;2024-02-21T10:32:07;18.88;;;8.05;;
49548;SDS011;35450;44.518;7.466;2024-02-21T10:35:29;16.17;;;7.93;;
49548;SDS011;35450;44.518;7.466;2024-02-21T10:38:35;17.80;;;9.63;;
49548;SDS011;35450;44.518;7.466;2024-02-21T10:41:42;18.27;;;8.93;;
49548;SDS011;35450;44.518;7.466;2024-02-21T10:44:51;19.35;;;9.40;;
49548;SDS011;35450;44.518;7.466;2024-02-21T10:47:56;15.98;;;9.35;;
49548;SDS011;35450;44.518;7.466;2024-02-21T10:51:14;16.67;;;8.73;;
49548;SDS011;35450;44.518;7.466;2024-02-21T10:54:34;19.92;;;9.02;;
49548;SDS011;35450;44.518;7.466;2024-02-21T10:57:48;19.42;;;9.95;;
49548;SDS011;35450;44.518;7.466;2024-02-21T11:00:53;23.80;;;11.02;;
49548;SDS011;35450;44.518;7.466;2024-02-21T11:03:59;23.98;;;11.15;;
49548;SDS011;35450;44.518;7.466;2024-02-21T11:07:06;33.13;;;14.77;;
49548;SDS011;35450;44.518;7.466;2024-02-21T11:10:24;35.67;;;18.02;;
49548;SDS011;35450;44.518;7.466;2024-02-21T11:13:30;38.97;;;20.45;;
49548;SDS011;35450;44.518;7.466;2024-02-21T11:16:36;36.10;;;20.23;;
49548;SDS011;35450;44.518;7.466;2024-02-21T11:19:45;39.53;;;21.23;;
49548;SDS011;35450;44.518;7.466;2024-02-21T11:22:49;43.35;;;22.63;;
49548;SDS011;35450;44.518;7.466;2024-02-21T11:26:03;36.88;;;18.13;;
49548;SDS011;35450;44.518;7.466;2024-02-21T11:29:10;38.78;;;19.88;;
49548;SDS011;35450;44.518;7.466;2024-02-21T11:32:15;45.55;;;24.98;;
49548;SDS011;35450;44.518;7.466;2024-02-21T11:35:19;53.42;;;29.02;;
49548;SDS011;35450;44.518;7.466;2024-02-21T11:38:23;55.65;;;28.65;;
49548;SDS011;35450;44.518;7.466;2024-02-21T11:41:29;57.08;;;29.60;;
49548;SDS011;35450;44.518;7.466;2024-02-21T11:44:33;69.35;;;36.53;;
49548;SDS011;35450;44.518;7.466;2024-02-21T11:47:38;60.00;;;34.58;;
49548;SDS011;35450;44.518;7.466;2024-02-21T11:50:52;71.00;;;39.97;;
49548;SDS011;35450;44.518;7.466;2024-02-21T11:54:00;70.55;;;40.65;;
49548;SDS011;35450;44.518;7.466;2024-02-21T11:57:04;64.85;;;34.90;;
49548;SDS011;35450;44.518;7.466;2024-02-21T12:00:12;65.63;;;36.47;;
49548;SDS011;35450;44.518;7.466;2024-02-21T12:03:17;61.17;;;32.80;;
49548;SDS011;35450;44.518;7.466;2024-02-21T12:06:21;50.65;;;27.63;;
49548;SDS011;35450;44.518;7.466;2024-02-21T12:09:26;59.25;;;31.48;;
49548;SDS011;35450;44.518;7.466;2024-02-21T12:12:30;48.40;;;27.10;;
49548;SDS011;35450;44.518;7.466;2024-02-21T12:15:39;55.67;;;29.30;;
49548;SDS011;35450;44.518;7.466;2024-02-21T12:18:44;59.13;;;29.88;;
49548;SDS011;35450;44.518;7.466;2024-02-21T12:21:48;54.17;;;28.30;;
49548;SDS011;35450;44.518;7.466;2024-02-21T12:24:57;53.90;;;28.55;;
49548;SDS011;35450;44.518;7.466;2024-02-21T12:28:01;52.85;;;28.23;;
49548;SDS011;35450;44.518;7.466;2024-02-21T12:31:07;47.83;;;26.90;;
49548;SDS011;35450;44.518;7.466;2024-02-21T12:34:11;55.30;;;27.73;;
49548;SDS011;35450;44.518;7.466;2024-02-21T12:37:15;61.70;;;30.73;;
49548;SDS011;35450;44.518;7.466;2024-02-21T12:40:19;54.97;;;28.13;;
49548;SDS011;35450;44.518;7.466;2024-02-21T12:43:23;54.38;;;29.95;;
49548;SDS011;35450;44.518;7.466;2024-02-21T12:46:27;56.53;;;28.75;;
49548;SDS011;35450;44.518;7.466;2024-02-21T12:49:31;60.28;;;31.92;;
49548;SDS011;35450;44.518;7.466;2024-02-21T12:52:36;60.83;;;30.83;;
49548;SDS011;35450;44.518;7.466;2024-02-21T12:55:40;69.40;;;34.03;;
49548;SDS011;35450;44.518;7.466;2024-02-21T12:58:44;61.22;;;32.08;;
49548;SDS011;35450;44.518;7.466;2024-02-21T13:01:52;62.00;;;31.45;;
49548;SDS011;35450;44.518;7.466;2024-02-21T13:04:56;63.45;;;32.70;;
49548;SDS011;35450;44.518;7.466;2024-02-21T13:08:00;64.72;;;34.47;;
49548;SDS011;35450;44.518;7.466;2024-02-21T13:11:05;62.58;;;33.58;;
49548;SDS011;35450;44.518;7.466;2024-02-21T13:14:09;67.18;;;34.60;;
49548;SDS011;35450;44.518;7.466;2024-02-21T13:17:13;71.43;;;36.30;;
49548;SDS011;35450;44.518;7.466;2024-02-21T13:20:18;81.25;;;37.65;;
49548;SDS011;35450;44.518;7.466;2024-02-21T13:23:21;74.60;;;35.78;;
49548;SDS011;35450;44.518;7.466;2024-02-21T13:26:26;66.82;;;34.20;;
49548;SDS011;35450;44.518;7.466;2024-02-21T13:29:30;63.17;;;33.70;;
49548;SDS011;35450;44.518;7.466;2024-02-21T13:32:34;65.82;;;31.30;;
49548;SDS011;35450;44.518;7.466;2024-02-21T13:35:44;66.53;;;32.75;;
49548;SDS011;35450;44.518;7.466;2024-02-21T13:38:48;71.13;;;33.20;;
49548;SDS011;35450;44.518;7.466;2024-02-21T13:41:54;66.13;;;32.08;;
49548;SDS011;35450;44.518;7.466;2024-02-21T13:44:59;60.60;;;30.48;;
49548;SDS011;35450;44.518;7.466;2024-02-21T13:48:03;60.72;;;30.73;;
49548;SDS011;35450;44.518;7.466;2024-02-21T13:51:09;58.20;;;29.40;;
49548;SDS011;35450;44.518;7.466;2024-02-21T13:54:16;64.20;;;31.35;;
49548;SDS011;35450;44.518;7.466;2024-02-21T13:57:22;65.85;;;31.20;;
49548;SDS011;35450;44.518;7.466;2024-02-21T14:00:26;60.58;;;29.92;;
49548;SDS011;35450;44.518;7.466;2024-02-21T14:03:30;56.75;;;30.15;;
49548;SDS011;35450;44.518;7.466;2024-02-21T14:06:34;62.15;;;31.33;;
49548;SDS011;35450;44.518;7.466;2024-02-21T14:09:39;59.65;;;28.70;;
49548;SDS011;35450;44.518;7.466;2024-02-21T14:12:43;58.70;;;30.05;;
49548;SDS011;35450;44.518;7.466;2024-02-21T14:15:48;57.72;;;30.63;;
49548;SDS011;35450;44.518;7.466;2024-02-21T14:18:53;61.42;;;31.95;;
49548;SDS011;35450;44.518;7.466;2024-02-21T14:22:00;63.67;;;30.52;;
49548;SDS011;35450;44.518;7.466;2024-02-21T14:25:05;60.05;;;32.50;;
49548;SDS011;35450;44.518;7.466;2024-02-21T14:28:09;55.63;;;29.88;;
49548;SDS011;35450;44.518;7.466;2024-02-21T14:31:13;56.10;;;29.17;;
49548;SDS011;35450;44.518;7.466;2024-02-21T14:34:17;60.70;;;30.25;;
49548;SDS011;35450;44.518;7.466;2024-02-21T14:37:23;59.63;;;29.77;;
49548;SDS011;35450;44.518;7.466;2024-02-21T14:40:27;57.90;;;28.50;;
49548;SDS011;35450;44.518;7.466;2024-02-21T14:43:33;62.95;;;29.50;;
49548;SDS011;35450;44.518;7.466;2024-02-21T14:46:38;59.13;;;28.33;;
49548;SDS011;35450;44.518;7.466;2024-02-21T14:49:43;74.53;;;30.02;;
49548;SDS011;35450;44.518;7.466;2024-02-21T14:52:47;52.03;;;26.92;;
49548;SDS011;35450;44.518;7.466;2024-02-21T14:55:51;55.60;;;26.50;;
49548;SDS011;35450;44.518;7.466;2024-02-21T14:58:55;49.33;;;24.55;;
49548;SDS011;35450;44.518;7.466;2024-02-21T15:01:59;44.72;;;24.55;;
49548;SDS011;35450;44.518;7.466;2024-02-21T15:05:04;53.78;;;27.38;;
49548;SDS011;35450;44.518;7.466;2024-02-21T15:08:08;57.03;;;28.08;;
49548;SDS011;35450;44.518;7.466;2024-02-21T15:11:14;48.00;;;26.52;;
49548;SDS011;35450;44.518;7.466;2024-02-21T15:14:18;54.40;;;25.77;;
49548;SDS011;35450;44.518;7.466;2024-02-21T15:17:22;53.45;;;27.50;;
49548;SDS011;35450;44.518;7.466;2024-02-21T15:20:26;57.28;;;29.13;;
49548;SDS011;35450;44.518;7.466;2024-02-21T15:23:31;56.28;;;28.63;;
49548;SDS011;35450;44.518;7.466;2024-02-21T15:26:35;53.67;;;29.00;;
49548;SDS011;35450;44.518;7.466;2024-02-21T15:29:39;58.65;;;29.30;;
49548;SDS011;35450;44.518;7.466;2024-02-21T15:32:43;56.28;;;29.88;;
49548;SDS011;35450;44.518;7.466;2024-02-21T15:35:47;64.68;;;30.33;;
49548;SDS011;35450;44.518;7.466;2024-02-21T15:38:51;61.45;;;31.25;;
49548;SDS011;35450;44.518;7.466;2024-02-21T15:41:55;63.25;;;32.15;;
49548;SDS011;35450;44.518;7.466;2024-02-21T15:44:59;58.83;;;31.70;;
49548;SDS011;35450;44.518;7.466;2024-02-21T15:48:04;61.30;;;32.47;;
49548;SDS011;35450;44.518;7.466;2024-02-21T15:51:10;60.67;;;33.40;;
49548;SDS011;35450;44.518;7.466;2024-02-21T15:54:14;64.88;;;32.08;;
49548;SDS011;35450;44.518;7.466;2024-02-21T15:57:20;57.13;;;31.45;;
49548;SDS011;35450;44.518;7.466;2024-02-21T16:00:25;70.75;;;35.90;;
49548;SDS011;35450;44.518;7.466;2024-02-21T16:03:29;59.38;;;32.47;;
49548;SDS011;35450;44.518;7.466;2024-02-21T16:06:35;63.30;;;33.83;;
49548;SDS011;35450;44.518;7.466;2024-02-21T16:09:39;66.75;;;36.08;;
49548;SDS011;35450;44.518;7.466;2024-02-21T16:12:47;68.25;;;35.38;;
49548;SDS011;35450;44.518;7.466;2024-02-21T16:15:54;63.30;;;35.65;;
49548;SDS011;35450;44.518;7.466;2024-02-21T16:18:58;65.75;;;35.00;;
49548;SDS011;35450;44.518;7.466;2024-02-21T16:22:02;64.95;;;36.13;;
49548;SDS011;35450;44.518;7.466;2024-02-21T16:25:09;71.50;;;38.50;;
49548;SDS011;35450;44.518;7.466;2024-02-21T16:28:13;67.53;;;37.47;;
49548;SDS011;35450;44.518;7.466;2024-02-21T16:31:17;70.70;;;38.05;;
49548;SDS011;35450;44.518;7.466;2024-02-21T16:34:21;67.22;;;36.45;;
49548;SDS011;35450;44.518;7.466;2024-02-21T16:37:27;64.38;;;35.10;;
49548;SDS011;35450;44.518;7.466;2024-02-21T16:40:32;62.72;;;34.17;;
49548;SDS011;35450;44.518;7.466;2024-02-21T16:43:37;68.32;;;37.58;;
49548;SDS011;35450;44.518;7.466;2024-02-21T16:46:41;87.53;;;44.38;;
49548;SDS011;35450;44.518;7.466;2024-02-21T16:49:45;77.22;;;40.50;;
49548;SDS011;35450;44.518;7.466;2024-02-21T16:52:49;81.25;;;39.65;;
49548;SDS011;35450;44.518;7.466;2024-02-21T16:55:53;68.45;;;39.38;;
49548;SDS011;35450;44.518;7.466;2024-02-21T16:58:57;93.13;;;41.58;;
49548;SDS011;35450;44.518;7.466;2024-02-21T17:02:01;96.90;;;45.60;;
49548;SDS011;35450;44.518;7.466;2024-02-21T17:05:07;81.18;;;43.58;;
49548;SDS011;35450;44.518;7.466;2024-02-21T17:08:15;70.75;;;39.17;;
49548;SDS011;35450;44.518;7.466;2024-02-21T17:11:19;74.93;;;35.72;;
49548;SDS011;35450;44.518;7.466;2024-02-21T17:14:23;77.35;;;37.15;;
49548;SDS011;35450;44.518;7.466;2024-02-21T17:17:28;67.47;;;34.28;;
49548;SDS011;35450;44.518;7.466;2024-02-21T17:20:32;71.57;;;34.90;;
49548;SDS011;35450;44.518;7.466;2024-02-21T17:23:37;68.47;;;33.22;;
49548;SDS011;35450;44.518;7.466;2024-02-21T17:26:41;67.35;;;33.70;;
49548;SDS011;35450;44.518;7.466;2024-02-21T17:29:46;69.22;;;33.83;;
49548;SDS011;35450;44.518;7.466;2024-02-21T17:32:50;65.40;;;32.95;;
49548;SDS011;35450;44.518;7.466;2024-02-21T17:35:57;67.55;;;33.15;;
49548;SDS011;35450;44.518;7.466;2024-02-21T17:39:01;66.03;;;31.73;;
49548;SDS011;35450;44.518;7.466;2024-02-21T17:42:05;60.28;;;31.67;;
49548;SDS011;35450;44.518;7.466;2024-02-21T17:45:10;68.32;;;33.53;;
49548;SDS011;35450;44.518;7.466;2024-02-21T17:48:14;67.90;;;32.88;;
49548;SDS011;35450;44.518;7.466;2024-02-21T17:51:18;61.33;;;32.58;;
49548;SDS011;35450;44.518;7.466;2024-02-21T17:54:22;68.05;;;33.38;;
49548;SDS011;35450;44.518;7.466;2024-02-21T17:57:26;63.15;;;32.10;;
49548;SDS011;35450;44.518;7.466;2024-02-21T18:00:30;56.08;;;29.15;;
49548;SDS011;35450;44.518;7.466;2024-02-21T18:03:35;60.35;;;30.48;;
49548;SDS011;35450;44.518;7.466;2024-02-21T18:06:39;62.80;;;32.60;;
49548;SDS011;35450;44.518;7.466;2024-02-21T18:09:44;61.95;;;33.42;;
49548;SDS011;35450;44.518;7.466;2024-02-21T18:12:48;70.75;;;37.88;;
49548;SDS011;35450;44.518;7.466;2024-02-21T18:15:52;80.22;;;41.80;;
49548;SDS011;35450;44.518;7.466;2024-02-21T18:18:56;84.47;;;43.97;;